createdAt,value
2022-09-05T00:02:02.912Z,16.30
2022-09-05T00:04:41.602Z,16.30
2022-09-05T00:07:38.796Z,16.30
2022-09-05T00:10:21.439Z,16.30
2022-09-05T00:13:07.262Z,16.40
2022-09-05T00:15:59.310Z,16.40
2022-09-05T00:24:20.425Z,16.40
2022-09-05T00:24:25.966Z,16.40
2022-09-05T00:25:56.876Z,16.40
2022-09-05T00:28:49.283Z,16.40
2022-09-05T00:31:55.020Z,16.40
2022-09-05T00:35:01.163Z,16.40
2022-09-05T00:37:31.051Z,16.40
2022-09-05T00:40:28.582Z,16.40
2022-09-05T00:43:24.503Z,16.30
2022-09-05T00:46:02.272Z,16.30
2022-09-05T00:51:50.497Z,16.20
2022-09-05T00:54:58.807Z,16.20
2022-09-05T00:57:36.200Z,16.20
2022-09-05T01:00:17.671Z,16.10
2022-09-05T01:03:06.968Z,16.10
2022-09-05T01:06:14.980Z,16.10
2022-09-05T01:09:09.917Z,16.00
2022-09-05T01:12:14.667Z,16.00
2022-09-05T01:14:54.570Z,16.00
2022-09-05T01:20:54.552Z,16.00
2022-09-05T01:23:42.455Z,16.00
2022-09-05T01:26:19.475Z,15.90
2022-09-05T01:29:17.964Z,15.90
2022-09-05T01:32:03.154Z,15.90
2022-09-05T01:34:34.508Z,15.90
2022-09-05T01:37:07.385Z,15.80
2022-09-05T01:40:16.168Z,15.80
2022-09-05T01:42:57.589Z,15.80
2022-09-05T01:45:45.877Z,15.80
2022-09-05T01:48:27.313Z,15.80
2022-09-05T01:51:28.413Z,15.80
2022-09-05T01:54:21.357Z,15.80
2022-09-05T01:57:25.139Z,15.80
2022-09-05T02:00:13.222Z,15.80
2022-09-05T02:03:15.743Z,15.80
2022-09-05T02:08:43.750Z,15.80
2022-09-05T02:14:33.620Z,15.80
2022-09-05T02:17:50.052Z,15.90
2022-09-05T02:20:23.823Z,15.80
2022-09-05T02:23:40.286Z,15.80
2022-09-05T02:26:20.897Z,15.80
2022-09-05T02:29:02.933Z,15.70
2022-09-05T02:40:06.163Z,15.70
2022-09-05T02:45:08.928Z,15.70
2022-09-05T02:45:24.251Z,15.70
2022-09-05T02:47:39.441Z,15.60
2022-09-05T02:52:14.271Z,15.60
2022-09-05T02:57:30.361Z,15.60
2022-09-05T02:57:35.239Z,15.50
2022-09-05T02:59:11.745Z,15.60
2022-09-05T03:01:56.346Z,15.60
2022-09-05T03:04:25.841Z,15.50
2022-09-05T03:07:11.678Z,15.60
2022-09-05T03:09:53.223Z,15.50
2022-09-05T03:12:51.134Z,15.50
2022-09-05T03:15:18.710Z,15.50
2022-09-05T03:18:25.438Z,15.40
2022-09-05T03:21:23.129Z,15.30
2022-09-05T03:24:17.562Z,15.30
2022-09-05T03:27:08.917Z,15.30
2022-09-05T03:30:00.222Z,15.20
2022-09-05T03:35:41.689Z,15.20
2022-09-05T03:41:00.821Z,15.10
2022-09-05T03:44:10.849Z,15.10
2022-09-05T03:53:58.503Z,15.10
2022-09-05T03:57:12.691Z,15.00
2022-09-05T03:57:18.607Z,15.00
2022-09-05T04:00:01.532Z,15.00
2022-09-05T04:06:44.228Z,14.90
2022-09-05T04:08:31.608Z,15.00
2022-09-05T04:08:33.057Z,15.00
2022-09-05T04:11:17.192Z,15.00
2022-09-05T04:13:49.220Z,14.90
2022-09-05T04:19:27.055Z,14.90
2022-09-05T04:22:10.646Z,14.90
2022-09-05T04:28:18.084Z,14.80
2022-09-05T04:31:20.562Z,14.80
2022-09-05T04:34:02.799Z,14.80
2022-09-05T04:36:36.372Z,14.70
2022-09-05T04:39:18.133Z,14.70
2022-09-05T04:41:53.570Z,14.80
2022-09-05T04:44:30.626Z,14.70
2022-09-05T04:47:03.231Z,14.70
2022-09-05T04:52:36.636Z,14.80
2022-09-05T04:55:09.462Z,14.70
2022-09-05T04:57:51.697Z,14.80
2022-09-05T05:06:03.207Z,14.80
2022-09-05T05:06:10.498Z,14.80
2022-09-05T05:06:45.926Z,14.80
2022-09-05T05:09:29.503Z,14.80
2022-09-05T05:17:55.889Z,14.80
2022-09-05T05:18:01.978Z,14.80
2022-09-05T05:20:44.152Z,14.90
2022-09-05T05:23:15.745Z,14.90
2022-09-05T05:25:47.957Z,15.00
2022-09-05T05:28:26.734Z,15.00
2022-09-05T05:31:01.554Z,15.10
2022-09-05T05:33:33.633Z,15.10
2022-09-05T05:39:00.953Z,15.00
2022-09-05T05:41:50.195Z,15.00
2022-09-05T05:47:37.037Z,15.00
2022-09-05T05:53:13.064Z,15.10
2022-09-05T05:56:19.788Z,15.10
2022-09-05T06:02:13.754Z,15.20
2022-09-05T06:05:04.211Z,15.20
2022-09-05T06:08:54.368Z,15.30
2022-09-05T06:14:49.045Z,15.40
2022-09-05T06:15:06.632Z,15.40
2022-09-05T06:17:28.117Z,15.50
2022-09-05T06:22:05.454Z,15.60
2022-09-05T06:23:16.577Z,15.70
2022-09-05T06:26:06.447Z,15.80
2022-09-05T06:29:24.171Z,16.00
2022-09-05T06:32:13.007Z,16.00
2022-09-05T06:34:59.900Z,16.20
2022-09-05T06:37:32.651Z,16.20
2022-09-05T06:40:15.937Z,16.30
2022-09-05T06:43:05.092Z,16.30
2022-09-05T06:45:43.517Z,16.40
2022-09-05T06:48:57.046Z,16.40
2022-09-05T06:51:31.974Z,16.40
2022-09-05T06:53:58.841Z,16.60
2022-09-05T06:56:53.302Z,16.60
2022-09-05T06:59:41.642Z,16.70
2022-09-05T07:02:18.119Z,16.90
2022-09-05T07:05:37.652Z,17.00
2022-09-05T07:08:09.943Z,17.20
2022-09-05T07:11:15.026Z,17.30
2022-09-05T07:14:21.250Z,17.40
2022-09-05T07:17:04.188Z,17.70
2022-09-05T07:19:54.864Z,17.70
2022-09-05T07:22:49.287Z,17.70
2022-09-05T07:25:21.713Z,17.90
2022-09-05T07:28:25.966Z,18.00
2022-09-05T07:30:58.414Z,18.10
2022-09-05T07:33:29.021Z,18.20
2022-09-05T07:36:05.872Z,18.30
2022-09-05T07:38:45.560Z,18.50
2022-09-05T07:41:24.695Z,18.40
2022-09-05T07:43:55.655Z,18.60
2022-09-05T07:46:27.394Z,18.80
2022-09-05T07:48:59.736Z,19.00
2022-09-05T07:56:53.780Z,19.10
2022-09-05T07:57:09.948Z,19.50
2022-09-05T07:57:51.485Z,19.60
2022-09-05T08:00:25.497Z,19.70
2022-09-05T08:02:54.983Z,19.80
2022-09-05T08:05:34.549Z,20.30
2022-09-05T08:08:07.806Z,20.40
2022-09-05T08:11:25.350Z,20.10
2022-09-05T08:13:42.448Z,20.20
2022-09-05T08:19:40.100Z,20.10
2022-09-05T08:22:12.937Z,20.40
2022-09-05T08:24:48.750Z,20.60
2022-09-05T08:27:29.361Z,20.20
2022-09-05T08:30:25.996Z,20.30
2022-09-05T08:33:24.948Z,20.40
2022-09-05T08:36:01.650Z,20.60
2022-09-05T08:38:35.960Z,20.70
2022-09-05T08:41:16.607Z,20.80
2022-09-05T08:46:44.900Z,20.90
2022-09-05T08:47:46.294Z,20.90
2022-09-05T08:50:26.718Z,20.80
2022-09-05T08:53:33.887Z,20.90
2022-09-05T08:56:20.686Z,20.80
2022-09-05T08:59:28.292Z,20.70
2022-09-05T09:02:17.350Z,20.50
2022-09-05T09:05:02.223Z,20.60
2022-09-05T09:07:50.982Z,20.60
2022-09-05T09:10:40.163Z,20.60
2022-09-05T09:13:18.560Z,20.70
2022-09-05T09:15:45.355Z,20.70
2022-09-05T09:18:18.315Z,20.70
2022-09-05T09:21:16.933Z,20.70
2022-09-05T09:27:07.826Z,21.00
2022-09-05T09:29:39.767Z,20.90
2022-09-05T09:32:17.218Z,20.90
2022-09-05T09:34:47.409Z,21.00
2022-09-05T09:40:43.818Z,21.30
2022-09-05T09:43:52.845Z,21.40
2022-09-05T09:46:44.956Z,21.50
2022-09-05T09:49:22.905Z,21.40
2022-09-05T09:51:53.520Z,21.50
2022-09-05T09:54:29.408Z,21.60
2022-09-05T09:57:21.170Z,21.60
2022-09-05T10:06:27.146Z,22.20
2022-09-05T10:10:53.553Z,22.60
2022-09-05T10:11:25.760Z,23.30
2022-09-05T10:13:20.526Z,23.40
2022-09-05T10:18:55.799Z,23.80
2022-09-05T10:21:31.264Z,23.60
2022-09-05T10:24:16.873Z,23.80
2022-09-05T10:27:13.128Z,23.90
2022-09-05T10:29:58.904Z,23.60
2022-09-05T10:35:17.316Z,23.50
2022-09-05T10:35:43.531Z,23.90
2022-09-05T10:38:11.998Z,24.10
2022-09-05T10:40:45.418Z,24.00
2022-09-05T10:46:46.573Z,25.30
2022-09-05T10:49:08.201Z,26.20
2022-09-05T10:51:56.575Z,26.30
2022-09-05T10:55:01.241Z,25.90
2022-09-05T10:58:14.858Z,26.00
2022-09-05T11:02:29.397Z,25.20
2022-09-05T11:06:55.249Z,26.60
2022-09-05T11:10:35.657Z,26.70
2022-09-05T11:13:12.332Z,26.20
2022-09-05T11:16:03.517Z,25.30
2022-09-05T11:18:32.441Z,24.90
2022-09-05T11:21:46.661Z,24.90
2022-09-05T11:24:43.169Z,24.60
2022-09-05T11:30:29.878Z,25.90
2022-09-05T11:37:48.692Z,25.70
2022-09-05T11:39:56.072Z,25.80
2022-09-05T11:40:29.124Z,26.50
2022-09-05T11:43:08.810Z,26.80
2022-09-05T11:46:05.481Z,27.60
2022-09-05T11:48:58.723Z,28.00
2022-09-05T11:51:49.906Z,28.20
2022-09-05T11:54:31.645Z,28.60
2022-09-05T11:57:33.489Z,28.10
2022-09-05T12:00:31.769Z,27.50
2022-09-05T12:03:09.610Z,26.90
2022-09-05T12:06:19.968Z,27.00
2022-09-05T12:09:25.734Z,27.10
2022-09-05T12:11:58.236Z,26.30
2022-09-05T12:15:00.186Z,27.80
2022-09-05T12:17:50.157Z,27.10
2022-09-05T12:20:21.957Z,27.10
2022-09-05T12:23:31.167Z,27.30
2022-09-05T12:27:40.624Z,27.10
2022-09-05T12:29:33.927Z,27.30
2022-09-05T12:36:06.883Z,27.10
2022-09-05T12:40:54.116Z,27.30
2022-09-05T12:41:42.125Z,27.90
2022-09-05T12:41:43.842Z,27.40
2022-09-05T12:44:42.876Z,27.60
2022-09-05T12:47:18.961Z,27.60
2022-09-05T12:50:34.511Z,27.50
2022-09-05T12:53:08.714Z,26.80
2022-09-05T12:55:53.714Z,27.00
2022-09-05T13:02:55.895Z,26.10
2022-09-05T13:03:02.088Z,26.40
2022-09-05T13:04:38.416Z,26.30
2022-09-05T13:07:37.421Z,26.40
2022-09-05T13:13:14.310Z,26.30
2022-09-05T13:15:03.003Z,26.20
2022-09-05T13:15:51.414Z,25.90
2022-09-05T13:18:22.547Z,25.40
2022-09-05T13:24:03.513Z,25.30
2022-09-05T13:26:38.289Z,24.90
2022-09-05T13:29:20.089Z,24.90
2022-09-05T13:37:53.696Z,24.80
2022-09-05T13:38:03.244Z,24.90
2022-09-05T13:38:28.838Z,25.00
2022-09-05T13:40:48.305Z,25.20
2022-09-05T13:43:28.798Z,25.10
2022-09-05T13:46:07.792Z,25.40
2022-09-05T13:51:51.210Z,25.70
2022-09-05T13:54:30.429Z,25.70
2022-09-05T13:57:32.227Z,25.70
2022-09-05T14:00:08.698Z,25.60
2022-09-05T14:03:37.644Z,25.80
2022-09-05T14:06:48.649Z,25.50
2022-09-05T14:09:40.950Z,25.70
2022-09-05T14:12:17.100Z,25.30
2022-09-05T14:15:09.697Z,25.40
2022-09-05T14:18:20.989Z,25.50
2022-09-05T14:21:26.314Z,25.80
2022-09-05T14:23:58.864Z,25.70
2022-09-05T14:26:50.884Z,25.40
2022-09-05T14:29:28.495Z,25.70
2022-09-05T14:37:35.482Z,25.70
2022-09-05T14:37:44.261Z,25.70
2022-09-05T14:38:15.704Z,25.60
2022-09-05T14:40:45.842Z,25.40
2022-09-05T14:43:33.831Z,25.50
2022-09-05T14:46:18.727Z,25.50
2022-09-05T14:51:35.209Z,25.40
2022-09-05T15:01:50.029Z,25.50
2022-09-05T15:03:00.880Z,25.60
2022-09-05T15:03:03.619Z,25.80
2022-09-05T15:05:46.959Z,25.70
2022-09-05T15:09:15.097Z,25.10
2022-09-05T15:12:20.852Z,24.80
2022-09-05T15:14:02.578Z,24.40
2022-09-05T15:16:31.274Z,24.30
2022-09-05T15:18:58.175Z,24.20
2022-09-05T15:21:51.252Z,24.20
2022-09-05T15:24:27.203Z,24.10
2022-09-05T15:26:59.201Z,24.10
2022-09-05T15:29:28.614Z,24.00
2022-09-05T15:32:19.343Z,23.70
2022-09-05T15:34:46.112Z,23.80
2022-09-05T15:37:22.770Z,23.60
2022-09-05T15:40:22.392Z,23.60
2022-09-05T15:43:01.570Z,23.60
2022-09-05T15:45:32.679Z,23.30
2022-09-05T15:48:21.334Z,23.30
2022-09-05T15:50:51.602Z,23.10
2022-09-05T15:53:28.788Z,23.10
2022-09-05T15:58:58.990Z,22.90
2022-09-05T16:01:59.758Z,22.90
2022-09-05T16:08:15.349Z,22.80
2022-09-05T16:10:49.871Z,22.70
2022-09-05T16:10:50.219Z,22.60
2022-09-05T16:12:48.865Z,22.70
2022-09-05T16:20:57.109Z,23.00
2022-09-05T16:23:24.107Z,22.90
2022-09-05T16:23:28.886Z,22.80
2022-09-05T16:24:28.558Z,22.70
2022-09-05T16:30:02.130Z,22.60
2022-09-05T16:35:18.176Z,22.40
2022-09-05T16:38:05.813Z,22.30
2022-09-05T16:40:41.784Z,22.20
2022-09-05T16:43:31.801Z,22.20
2022-09-05T16:46:07.706Z,22.10
2022-09-05T16:48:56.185Z,22.10
2022-09-05T16:51:36.167Z,22.00
2022-09-05T16:54:16.317Z,21.90
2022-09-05T16:56:49.857Z,21.80
2022-09-05T16:59:17.959Z,21.80
2022-09-05T17:01:54.733Z,21.70
2022-09-05T17:07:47.794Z,21.60
2022-09-05T17:13:29.524Z,21.40
2022-09-05T17:15:58.109Z,21.40
2022-09-05T17:21:56.310Z,21.30
2022-09-05T17:29:15.848Z,21.20
2022-09-05T17:29:41.138Z,21.20
2022-09-05T17:33:47.337Z,21.00
2022-09-05T17:36:41.346Z,21.00
2022-09-05T17:39:44.476Z,20.90
2022-09-05T17:42:53.992Z,20.90
2022-09-05T17:45:41.637Z,20.80
2022-09-05T17:48:13.223Z,20.70
2022-09-05T17:50:50.200Z,20.70
2022-09-05T17:53:26.131Z,20.70
2022-09-05T17:55:54.201Z,20.60
2022-09-05T17:58:24.047Z,20.60
2022-09-05T18:00:50.852Z,20.60
2022-09-05T18:03:36.223Z,20.50
2022-09-05T18:06:14.959Z,20.50
2022-09-05T18:11:44.943Z,20.40
2022-09-05T18:14:24.430Z,20.30
2022-09-05T18:19:44.019Z,20.20
2022-09-05T18:22:26.785Z,20.00
2022-09-05T18:25:30.668Z,19.90
2022-09-05T18:28:26.539Z,19.90
2022-09-05T18:31:18.266Z,19.70
2022-09-05T18:34:15.497Z,19.70
2022-09-05T18:36:44.544Z,19.60
2022-09-05T18:39:24.333Z,19.50
2022-09-05T18:42:16.154Z,19.40
2022-09-05T18:44:59.699Z,19.30
2022-09-05T18:47:32.953Z,19.20
2022-09-05T18:50:24.241Z,19.10
2022-09-05T18:52:51.798Z,19.00
2022-09-05T18:56:12.183Z,18.90
2022-09-05T18:58:52.766Z,18.90
2022-09-05T19:01:51.490Z,18.90
2022-09-05T19:04:39.146Z,18.70
2022-09-05T19:07:12.108Z,18.70
2022-09-05T19:09:57.076Z,18.60
2022-09-05T19:12:32.486Z,18.60
2022-09-05T19:15:08.564Z,18.50
2022-09-05T19:17:46.981Z,18.50
2022-09-05T19:20:33.134Z,18.40
2022-09-05T19:23:11.301Z,18.40
2022-09-05T19:25:44.673Z,18.30
2022-09-05T19:36:45.426Z,18.30
2022-09-05T19:37:06.263Z,18.30
2022-09-05T19:37:23.736Z,18.20
2022-09-05T19:43:48.346Z,18.20
2022-09-05T19:47:35.584Z,18.10
2022-09-05T19:47:41.507Z,18.10
2022-09-05T19:48:20.458Z,18.00
2022-09-05T19:50:47.582Z,18.00
2022-09-05T19:53:17.497Z,17.90
2022-09-05T19:55:45.010Z,17.90
2022-09-05T19:58:18.788Z,17.80
2022-09-05T20:01:00.889Z,17.80
2022-09-05T20:03:39.395Z,17.70
2022-09-05T20:06:30.109Z,17.70
2022-09-05T20:09:09.135Z,17.70
2022-09-05T20:11:45.249Z,17.60
2022-09-05T20:14:16.938Z,17.60
2022-09-05T20:16:43.852Z,17.50
2022-09-05T20:19:45.790Z,17.40
2022-09-05T20:22:48.012Z,17.40
2022-09-05T20:25:19.759Z,17.30
2022-09-05T20:28:10.228Z,17.30
2022-09-05T20:30:40.783Z,17.30
2022-09-05T20:33:22.476Z,17.30
2022-09-05T20:41:11.613Z,17.30
2022-09-05T20:43:16.801Z,17.30
2022-09-05T20:43:23.028Z,17.20
2022-09-05T20:54:09.665Z,17.20
2022-09-05T20:54:19.064Z,17.20
2022-09-05T20:54:21.531Z,17.10
2022-09-05T20:56:09.648Z,17.10
2022-09-05T20:58:38.649Z,17.00
2022-09-05T21:01:20.882Z,17.00
2022-09-05T21:04:01.555Z,17.00
2022-09-05T21:06:34.008Z,17.00
2022-09-05T21:09:24.649Z,16.90
2022-09-05T21:11:56.582Z,16.90
2022-09-05T21:14:27.009Z,16.90
2022-09-05T21:19:56.124Z,16.80
2022-09-05T21:25:43.606Z,16.70
2022-09-05T21:28:36.383Z,16.70
2022-09-05T21:31:15.129Z,16.70
2022-09-05T21:33:45.377Z,16.70
2022-09-05T21:36:14.656Z,16.60
2022-09-05T21:38:43.082Z,16.60
2022-09-05T21:47:42.995Z,16.60
2022-09-05T21:47:48.553Z,16.60
2022-09-05T21:49:34.915Z,16.60
2022-09-05T21:52:04.679Z,16.50
2022-09-05T21:59:22.350Z,16.50
2022-09-05T21:59:22.461Z,16.50
2022-09-05T22:00:11.571Z,16.50
2022-09-05T22:02:38.500Z,16.50
2022-09-05T22:05:05.750Z,16.40
2022-09-05T22:07:33.369Z,16.50
2022-09-05T22:10:01.909Z,16.40
2022-09-05T22:12:31.249Z,16.30
2022-09-05T22:15:04.525Z,16.40
2022-09-05T22:17:46.461Z,16.30
2022-09-05T22:20:17.063Z,16.30
2022-09-05T22:25:19.256Z,16.20
2022-09-05T22:28:03.309Z,16.20
2022-09-05T22:33:16.937Z,16.20
2022-09-05T22:35:44.085Z,16.20
2022-09-05T22:38:17.782Z,16.20
2022-09-05T22:43:31.493Z,16.20
2022-09-05T22:48:44.955Z,16.10
2022-09-05T22:51:12.213Z,16.10
2022-09-05T22:53:39.134Z,16.10
2022-09-05T22:56:07.718Z,16.10
2022-09-05T22:58:52.475Z,16.10
2022-09-05T23:01:19.295Z,16.00
2022-09-05T23:03:46.130Z,16.00
2022-09-05T23:06:12.909Z,16.00
2022-09-05T23:08:39.743Z,16.00
2022-09-05T23:11:11.035Z,15.90
2022-09-05T23:13:39.344Z,15.90
2022-09-05T23:16:06.856Z,15.90
2022-09-05T23:18:33.916Z,15.90
2022-09-05T23:21:05.768Z,15.90
2022-09-05T23:23:32.781Z,15.90
2022-09-05T23:26:00.666Z,15.90
2022-09-05T23:31:14.217Z,15.90
2022-09-05T23:36:12.090Z,15.90
2022-09-05T23:38:40.396Z,15.90
2022-09-05T23:43:56.257Z,15.90
2022-09-05T23:49:09.718Z,15.80
2022-09-05T23:54:23.181Z,15.80
2022-09-05T23:59:36.795Z,15.80
